sensor_id;sensor_type;location;lat;lon;timestamp;pressure;altitude;pressure_sealevel;temperature;humidity
16255;BME280;8235;52.198;9.904;2023-09-12T00:01:57;100466.22;;;22.31;80.02
16255;BME280;8235;52.198;9.904;2023-09-12T00:04:25;100468.06;;;22.31;80.44
16255;BME280;8235;52.198;9.904;2023-09-12T00:06:51;100458.59;;;22.27;80.53
16255;BME280;8235;52.198;9.904;2023-09-12T00:09:18;100472.34;;;22.25;80.72
16255;BME280;8235;52.198;9.904;2023-09-12T00:11:44;100454.75;;;22.21;80.95
16255;BME280;8235;52.198;9.904;2023-09-12T00:14:14;100445.44;;;22.15;81.66
16255;BME280;8235;52.198;9.904;2023-09-12T00:16:41;100440.34;;;22.12;81.44
16255;BME280;8235;52.198;9.904;2023-09-12T00:19:07;100434.25;;;22.10;81.59
16255;BME280;8235;52.198;9.904;2023-09-12T00:21:35;100444.59;;;22.07;81.76
16255;BME280;8235;52.198;9.904;2023-09-12T00:24:02;100442.06;;;22.05;81.99
16255;BME280;8235;52.198;9.904;2023-09-12T00:26:29;100462.44;;;22.01;82.27
16255;BME280;8235;52.198;9.904;2023-09-12T00:28:56;100466.31;;;21.99;82.71
16255;BME280;8235;52.198;9.904;2023-09-12T00:31:22;100462.09;;;21.96;82.84
16255;BME280;8235;52.198;9.904;2023-09-12T00:33:49;100440.75;;;21.93;82.92
16255;BME280;8235;52.198;9.904;2023-09-12T00:36:15;100429.41;;;21.90;82.99
16255;BME280;8235;52.198;9.904;2023-09-12T00:38:43;100427.03;;;21.87;83.26
16255;BME280;8235;52.198;9.904;2023-09-12T00:41:10;100421.31;;;21.81;83.39
16255;BME280;8235;52.198;9.904;2023-09-12T00:43:36;100421.50;;;21.80;83.74
16255;BME280;8235;52.198;9.904;2023-09-12T00:46:02;100430.81;;;21.77;83.77
16255;BME280;8235;52.198;9.904;2023-09-12T00:48:29;100429.13;;;21.76;83.97
16255;BME280;8235;52.198;9.904;2023-09-12T00:50:56;100417.59;;;21.74;84.15
16255;BME280;8235;52.198;9.904;2023-09-12T00:53:23;100417.78;;;21.73;84.22
16255;BME280;8235;52.198;9.904;2023-09-12T00:55:54;100419.63;;;21.72;84.27
16255;BME280;8235;52.198;9.904;2023-09-12T00:58:22;100423.38;;;21.71;84.41
16255;BME280;8235;52.198;9.904;2023-09-12T01:00:49;100421.84;;;21.69;84.51
16255;BME280;8235;52.198;9.904;2023-09-12T01:03:15;100434.75;;;21.67;84.66
16255;BME280;8235;52.198;9.904;2023-09-12T01:05:43;100418.84;;;21.64;84.92
16255;BME280;8235;52.198;9.904;2023-09-12T01:08:09;100412.56;;;21.63;85.20
16255;BME280;8235;52.198;9.904;2023-09-12T01:10:36;100428.16;;;21.61;85.27
16255;BME280;8235;52.198;9.904;2023-09-12T01:13:05;100432.91;;;21.59;85.76
16255;BME280;8235;52.198;9.904;2023-09-12T01:15:32;100406.13;;;21.56;85.83
16255;BME280;8235;52.198;9.904;2023-09-12T01:17:58;100408.19;;;21.54;86.21
16255;BME280;8235;52.198;9.904;2023-09-12T01:20:27;100420.19;;;21.52;86.32
16255;BME280;8235;52.198;9.904;2023-09-12T01:22:59;100419.56;;;21.50;86.60
16255;BME280;8235;52.198;9.904;2023-09-12T01:26:01;100417.19;;;21.46;86.43
16255;BME280;8235;52.198;9.904;2023-09-12T01:28:30;100416.50;;;21.44;86.72
16255;BME280;8235;52.198;9.904;2023-09-12T01:31:01;100418.38;;;21.44;86.63
16255;BME280;8235;52.198;9.904;2023-09-12T01:33:28;100412.13;;;21.43;87.00
16255;BME280;8235;52.198;9.904;2023-09-12T01:35:55;100409.75;;;21.40;86.99
16255;BME280;8235;52.198;9.904;2023-09-12T01:38:21;100411.59;;;21.40;87.23
16255;BME280;8235;52.198;9.904;2023-09-12T01:40:50;100414.47;;;21.38;87.23
16255;BME280;8235;52.198;9.904;2023-09-12T01:43:19;100413.81;;;21.36;87.37
16255;BME280;8235;52.198;9.904;2023-09-12T01:45:50;100408.56;;;21.35;87.12
16255;BME280;8235;52.198;9.904;2023-09-12T01:48:20;100410.13;;;21.29;86.30
16255;BME280;8235;52.198;9.904;2023-09-12T01:50:48;100413.13;;;21.18;86.00
16255;BME280;8235;52.198;9.904;2023-09-12T01:53:15;100423.97;;;21.10;86.68
16255;BME280;8235;52.198;9.904;2023-09-12T01:55:42;100421.94;;;21.04;87.04
16255;BME280;8235;52.198;9.904;2023-09-12T01:58:10;100421.44;;;21.00;87.24
16255;BME280;8235;52.198;9.904;2023-09-12T02:00:37;100420.91;;;20.97;87.63
16255;BME280;8235;52.198;9.904;2023-09-12T02:03:06;100426.34;;;20.97;88.03
16255;BME280;8235;52.198;9.904;2023-09-12T02:05:32;100423.16;;;20.93;88.27
16255;BME280;8235;52.198;9.904;2023-09-12T02:07:59;100432.13;;;20.94;88.40
16255;BME280;8235;52.198;9.904;2023-09-12T02:10:26;100431.59;;;20.90;87.35
16255;BME280;8235;52.198;9.904;2023-09-12T02:12:53;100433.44;;;20.82;87.15
16255;BME280;8235;52.198;9.904;2023-09-12T02:15:19;100440.56;;;20.74;87.29
16255;BME280;8235;52.198;9.904;2023-09-12T02:17:46;100454.75;;;20.68;87.85
16255;BME280;8235;52.198;9.904;2023-09-12T02:20:17;100455.09;;;20.65;88.33
16255;BME280;8235;52.198;9.904;2023-09-12T02:22:43;100459.81;;;20.63;88.69
16255;BME280;8235;52.198;9.904;2023-09-12T02:25:10;100472.00;;;20.59;89.24
16255;BME280;8235;52.198;9.904;2023-09-12T02:27:37;100475.56;;;20.60;90.52
16255;BME280;8235;52.198;9.904;2023-09-12T02:30:04;100479.75;;;20.62;91.83
16255;BME280;8235;52.198;9.904;2023-09-12T02:32:31;100485.84;;;20.64;92.78
16255;BME280;8235;52.198;9.904;2023-09-12T02:34:57;100472.16;;;20.66;93.61
16255;BME280;8235;52.198;9.904;2023-09-12T02:37:25;100468.28;;;20.68;94.00
16255;BME280;8235;52.198;9.904;2023-09-12T02:39:52;100469.28;;;20.67;94.20
16255;BME280;8235;52.198;9.904;2023-09-12T02:42:18;100473.84;;;20.67;94.61
16255;BME280;8235;52.198;9.904;2023-09-12T02:44:45;100465.75;;;20.67;94.23
16255;BME280;8235;52.198;9.904;2023-09-12T02:47:11;100476.03;;;20.63;93.38
16255;BME280;8235;52.198;9.904;2023-09-12T02:49:37;100484.31;;;20.54;91.74
16255;BME280;8235;52.198;9.904;2023-09-12T02:52:04;100485.47;;;20.43;91.31
16255;BME280;8235;52.198;9.904;2023-09-12T02:54:32;100484.56;;;20.34;91.15
16255;BME280;8235;52.198;9.904;2023-09-12T02:56:58;100502.63;;;20.26;91.27
16255;BME280;8235;52.198;9.904;2023-09-12T02:59:25;100510.22;;;20.22;92.79
16255;BME280;8235;52.198;9.904;2023-09-12T03:01:51;100515.47;;;20.24;95.64
16255;BME280;8235;52.198;9.904;2023-09-12T03:04:18;100516.13;;;20.26;96.76
16255;BME280;8235;52.198;9.904;2023-09-12T03:06:44;100515.66;;;20.30;97.15
16255;BME280;8235;52.198;9.904;2023-09-12T03:09:11;100519.22;;;20.31;97.50
16255;BME280;8235;52.198;9.904;2023-09-12T03:11:39;100509.91;;;20.33;97.96
16255;BME280;8235;52.198;9.904;2023-09-12T03:14:05;100500.97;;;20.33;98.10
16255;BME280;8235;52.198;9.904;2023-09-12T03:16:32;100500.97;;;20.33;97.90
16255;BME280;8235;52.198;9.904;2023-09-12T03:18:58;100502.81;;;20.32;97.90
16255;BME280;8235;52.198;9.904;2023-09-12T03:21:26;100499.09;;;20.33;97.96
16255;BME280;8235;52.198;9.904;2023-09-12T03:23:52;100496.41;;;20.33;98.10
16255;BME280;8235;52.198;9.904;2023-09-12T03:26:19;100498.25;;;20.33;98.15
16255;BME280;8235;52.198;9.904;2023-09-12T03:28:48;100483.03;;;20.32;97.74
16255;BME280;8235;52.198;9.904;2023-09-12T03:31:15;100478.63;;;20.31;97.18
16255;BME280;8235;52.198;9.904;2023-09-12T03:33:43;100494.34;;;20.27;96.97
16255;BME280;8235;52.198;9.904;2023-09-12T03:36:13;100492.16;;;20.23;96.66
16255;BME280;8235;52.198;9.904;2023-09-12T03:38:39;100486.38;;;20.18;96.57
16255;BME280;8235;52.198;9.904;2023-09-12T03:41:06;100496.66;;;20.14;96.41
16255;BME280;8235;52.198;9.904;2023-09-12T03:43:33;100495.97;;;20.12;96.61
16255;BME280;8235;52.198;9.904;2023-09-12T03:46:01;100503.41;;;20.10;96.63
16255;BME280;8235;52.198;9.904;2023-09-12T03:48:28;100512.50;;;20.09;96.76
16255;BME280;8235;52.198;9.904;2023-09-12T03:50:55;100511.50;;;20.10;97.25
16255;BME280;8235;52.198;9.904;2023-09-12T03:53:22;100515.91;;;20.11;97.43
16255;BME280;8235;52.198;9.904;2023-09-12T03:55:49;100524.16;;;20.09;97.81
16255;BME280;8235;52.198;9.904;2023-09-12T03:58:15;100543.94;;;20.10;98.53
16255;BME280;8235;52.198;9.904;2023-09-12T04:00:41;100558.16;;;20.12;99.83
16255;BME280;8235;52.198;9.904;2023-09-12T04:03:10;100575.91;;;20.15;100.00
16255;BME280;8235;52.198;9.904;2023-09-12T04:05:37;100585.72;;;20.16;100.00
16255;BME280;8235;52.198;9.904;2023-09-12T04:08:04;100592.31;;;20.13;100.00
16255;BME280;8235;52.198;9.904;2023-09-12T04:10:30;100571.53;;;20.14;100.00
16255;BME280;8235;52.198;9.904;2023-09-12T04:12:57;100568.81;;;20.14;100.00
16255;BME280;8235;52.198;9.904;2023-09-12T05:20:43;100482.31;;;19.80;100.00
16255;BME280;8235;52.198;9.904;2023-09-12T05:23:10;100483.00;;;19.82;100.00
16255;BME280;8235;52.198;9.904;2023-09-12T05:25:36;100504.28;;;19.85;100.00
16255;BME280;8235;52.198;9.904;2023-09-12T05:28:03;100527.44;;;19.87;100.00
16255;BME280;8235;52.198;9.904;2023-09-12T05:30:30;100529.81;;;19.90;100.00
16255;BME280;8235;52.198;9.904;2023-09-12T05:32:56;100533.75;;;19.96;100.00
16255;BME280;8235;52.198;9.904;2023-09-12T05:35:23;100545.09;;;19.99;100.00
16255;BME280;8235;52.198;9.904;2023-09-12T05:37:51;100550.03;;;20.04;100.00
16255;BME280;8235;52.198;9.904;2023-09-12T05:40:18;100550.38;;;20.09;100.00
16255;BME280;8235;52.198;9.904;2023-09-12T05:42:45;100565.25;;;20.13;100.00
16255;BME280;8235;52.198;9.904;2023-09-12T05:45:11;100568.66;;;20.15;100.00
16255;BME280;8235;52.198;9.904;2023-09-12T05:47:38;100574.75;;;20.17;100.00
16255;BME280;8235;52.198;9.904;2023-09-12T05:50:05;100570.03;;;20.19;100.00
16255;BME280;8235;52.198;9.904;2023-09-12T05:52:32;100582.56;;;20.20;100.00
16255;BME280;8235;52.198;9.904;2023-09-12T05:54:59;100584.94;;;20.23;100.00
16255;BME280;8235;52.198;9.904;2023-09-12T05:57:26;100583.94;;;20.24;100.00
16255;BME280;8235;52.198;9.904;2023-09-12T05:59:52;100583.59;;;20.27;100.00
16255;BME280;8235;52.198;9.904;2023-09-12T06:02:19;100605.06;;;20.29;100.00
16255;BME280;8235;52.198;9.904;2023-09-12T06:04:45;100600.50;;;20.29;100.00
16255;BME280;8235;52.198;9.904;2023-09-12T06:07:12;100607.59;;;20.30;100.00
16255;BME280;8235;52.198;9.904;2023-09-12T06:09:38;100624.69;;;20.31;100.00
16255;BME280;8235;52.198;9.904;2023-09-12T06:12:07;100633.66;;;20.31;100.00
16255;BME280;8235;52.198;9.904;2023-09-12T06:14:33;100654.97;;;20.34;100.00
16255;BME280;8235;52.198;9.904;2023-09-12T06:17:00;100650.41;;;20.35;100.00
16255;BME280;8235;52.198;9.904;2023-09-12T06:19:26;100655.81;;;20.35;100.00
16255;BME280;8235;52.198;9.904;2023-09-12T06:21:53;100644.31;;;20.33;100.00
16255;BME280;8235;52.198;9.904;2023-09-12T06:24:21;100648.03;;;20.32;100.00
16255;BME280;8235;52.198;9.904;2023-09-12T06:26:48;100631.94;;;20.30;100.00
16255;BME280;8235;52.198;9.904;2023-09-12T06:29:16;100602.53;;;20.27;100.00
16255;BME280;8235;52.198;9.904;2023-09-12T06:31:43;100570.72;;;20.21;100.00
16255;BME280;8235;52.198;9.904;2023-09-12T06:34:09;100574.44;;;20.20;100.00
16255;BME280;8235;52.198;9.904;2023-09-12T06:36:36;100610.91;;;20.16;100.00
16255;BME280;8235;52.198;9.904;2023-09-12T06:39:04;100607.38;;;20.16;100.00
16255;BME280;8235;52.198;9.904;2023-09-12T06:41:30;100585.00;;;20.05;100.00
16255;BME280;8235;52.198;9.904;2023-09-12T06:43:57;100547.63;;;20.01;100.00
16255;BME280;8235;52.198;9.904;2023-09-12T06:46:26;100512.13;;;19.96;100.00
16255;BME280;8235;52.198;9.904;2023-09-12T06:48:52;100505.16;;;19.93;100.00
16255;BME280;8235;52.198;9.904;2023-09-12T06:51:23;100514.28;;;19.92;100.00
16255;BME280;8235;52.198;9.904;2023-09-12T06:53:50;100523.94;;;19.95;100.00
16255;BME280;8235;52.198;9.904;2023-09-12T06:56:16;100539.84;;;19.98;100.00
16255;BME280;8235;52.198;9.904;2023-09-12T06:58:42;100547.94;;;19.98;100.00
16255;BME280;8235;52.198;9.904;2023-09-12T07:01:09;100540.84;;;19.97;100.00
16255;BME280;8235;52.198;9.904;2023-09-12T07:03:37;100533.91;;;19.94;100.00
16255;BME280;8235;52.198;9.904;2023-09-12T07:06:04;100514.78;;;19.88;100.00
16255;BME280;8235;52.198;9.904;2023-09-12T07:08:31;100499.91;;;19.84;100.00
16255;BME280;8235;52.198;9.904;2023-09-12T07:10:58;100490.25;;;19.81;100.00
16255;BME280;8235;52.198;9.904;2023-09-12T07:13:31;100466.94;;;19.80;100.00
16255;BME280;8235;52.198;9.904;2023-09-12T07:15:57;100449.72;;;19.81;100.00
16255;BME280;8235;52.198;9.904;2023-09-12T07:18:24;100452.41;;;19.81;100.00
16255;BME280;8235;52.198;9.904;2023-09-12T07:20:58;100446.84;;;19.83;100.00
16255;BME280;8235;52.198;9.904;2023-09-12T07:23:25;100456.81;;;19.82;100.00
16255;BME280;8235;52.198;9.904;2023-09-12T07:25:51;100466.47;;;19.85;100.00
16255;BME280;8235;52.198;9.904;2023-09-12T07:28:18;100464.91;;;19.82;100.00
16255;BME280;8235;52.198;9.904;2023-09-12T07:30:45;100463.91;;;19.83;100.00
16255;BME280;8235;52.198;9.904;2023-09-12T07:33:12;100465.94;;;19.81;100.00
16255;BME280;8235;52.198;9.904;2023-09-12T07:35:38;100465.94;;;19.81;100.00
16255;BME280;8235;52.198;9.904;2023-09-12T07:38:06;100468.47;;;19.83;100.00
16255;BME280;8235;52.198;9.904;2023-09-12T07:40:33;100473.56;;;19.86;100.00
16255;BME280;8235;52.198;9.904;2023-09-12T07:42:59;100469.69;;;19.88;100.00
16255;BME280;8235;52.198;9.904;2023-09-12T07:45:26;100462.09;;;19.92;100.00
16255;BME280;8235;52.198;9.904;2023-09-12T07:47:53;100443.69;;;19.95;100.00
16255;BME280;8235;52.198;9.904;2023-09-12T07:50:19;100445.22;;;19.98;100.00
16255;BME280;8235;52.198;9.904;2023-09-12T07:52:46;100442.72;;;20.04;100.00
16255;BME280;8235;52.198;9.904;2023-09-12T07:55:14;100440.53;;;20.08;100.00
16255;BME280;8235;52.198;9.904;2023-09-12T07:57:40;100445.13;;;20.16;100.00
16255;BME280;8235;52.198;9.904;2023-09-12T08:00:09;100444.31;;;20.23;100.00
16255;BME280;8235;52.198;9.904;2023-09-12T08:02:35;100450.75;;;20.30;100.00
16255;BME280;8235;52.198;9.904;2023-09-12T08:05:02;100454.97;;;20.33;100.00
16255;BME280;8235;52.198;9.904;2023-09-12T08:07:29;100468.91;;;20.38;100.00
16255;BME280;8235;52.198;9.904;2023-09-12T08:09:56;100471.94;;;20.43;100.00
16255;BME280;8235;52.198;9.904;2023-09-12T08:12:27;100474.16;;;20.48;100.00
16255;BME280;8235;52.198;9.904;2023-09-12T08:14:54;100486.03;;;20.55;100.00
16255;BME280;8235;52.198;9.904;2023-09-12T08:17:22;100489.75;;;20.62;100.00
16255;BME280;8235;52.198;9.904;2023-09-12T08:19:48;100490.63;;;20.70;100.00
16255;BME280;8235;52.198;9.904;2023-09-12T08:22:16;100498.94;;;20.77;100.00
16255;BME280;8235;52.198;9.904;2023-09-12T08:24:44;100501.28;;;20.80;100.00
16255;BME280;8235;52.198;9.904;2023-09-12T08:27:10;100511.44;;;20.86;100.00
16255;BME280;8235;52.198;9.904;2023-09-12T08:29:38;100523.28;;;20.85;100.00
16255;BME280;8235;52.198;9.904;2023-09-12T08:32:05;100543.94;;;20.86;100.00
16255;BME280;8235;52.198;9.904;2023-09-12T08:34:31;100561.72;;;20.89;100.00
16255;BME280;8235;52.198;9.904;2023-09-12T08:36:58;100572.69;;;20.87;100.00
16255;BME280;8235;52.198;9.904;2023-09-12T08:39:26;100596.91;;;20.89;100.00
16255;BME280;8235;52.198;9.904;2023-09-12T08:41:53;100596.06;;;20.88;100.00
16255;BME280;8235;52.198;9.904;2023-09-12T08:44:20;100598.91;;;20.87;100.00
16255;BME280;8235;52.198;9.904;2023-09-12T08:46:48;100619.72;;;20.86;100.00
16255;BME280;8235;52.198;9.904;2023-09-12T08:49:15;100628.69;;;20.87;100.00
16255;BME280;8235;52.198;9.904;2023-09-12T08:51:42;100617.22;;;20.93;100.00
16255;BME280;8235;52.198;9.904;2023-09-12T08:54:09;100624.50;;;20.92;100.00
16255;BME280;8235;52.198;9.904;2023-09-12T08:56:39;100618.06;;;20.93;100.00
16255;BME280;8235;52.198;9.904;2023-09-12T08:59:06;100615.19;;;20.95;100.00
16255;BME280;8235;52.198;9.904;2023-09-12T09:01:33;100631.44;;;20.95;100.00
16255;BME280;8235;52.198;9.904;2023-09-12T09:04:03;100628.75;;;20.95;100.00
16255;BME280;8235;52.198;9.904;2023-09-12T09:06:32;100631.44;;;20.95;100.00
16255;BME280;8235;52.198;9.904;2023-09-12T09:09:04;100633.63;;;20.99;100.00
16255;BME280;8235;52.198;9.904;2023-09-12T09:11:31;100646.00;;;21.02;100.00
16255;BME280;8235;52.198;9.904;2023-09-12T09:13:58;100638.25;;;21.07;100.00
16255;BME280;8235;52.198;9.904;2023-09-12T09:16:24;100657.56;;;21.12;100.00
16255;BME280;8235;52.198;9.904;2023-09-12T09:18:53;100658.13;;;21.24;100.00
16255;BME280;8235;52.198;9.904;2023-09-12T09:21:22;100665.91;;;21.35;100.00
16255;BME280;8235;52.198;9.904;2023-09-12T09:23:50;100668.16;;;21.47;100.00
16255;BME280;8235;52.198;9.904;2023-09-12T09:26:17;100673.09;;;21.60;100.00
16255;BME280;8235;52.198;9.904;2023-09-12T09:28:43;100676.31;;;21.72;100.00
16255;BME280;8235;52.198;9.904;2023-09-12T09:31:10;100682.09;;;21.85;100.00
16255;BME280;8235;52.198;9.904;2023-09-12T09:33:39;100675.13;;;21.99;100.00
16255;BME280;8235;52.198;9.904;2023-09-12T09:36:07;100667.34;;;22.12;100.00
16255;BME280;8235;52.198;9.904;2023-09-12T09:38:35;100664.28;;;22.23;98.59
16255;BME280;8235;52.198;9.904;2023-09-12T09:41:04;100654.44;;;22.30;95.40
16255;BME280;8235;52.198;9.904;2023-09-12T09:43:31;100661.03;;;22.36;93.26
16255;BME280;8235;52.198;9.904;2023-09-12T09:45:58;100663.75;;;22.36;90.08
16255;BME280;8235;52.198;9.904;2023-09-12T09:48:26;100658.16;;;22.29;89.40
16255;BME280;8235;52.198;9.904;2023-09-12T09:50:53;100652.06;;;22.27;88.47
16255;BME280;8235;52.198;9.904;2023-09-12T09:53:26;100646.63;;;22.27;88.06
16255;BME280;8235;52.198;9.904;2023-09-12T09:56:07;100659.19;;;22.28;86.41
16255;BME280;8235;52.198;9.904;2023-09-12T09:58:34;100656.97;;;22.24;85.04
16255;BME280;8235;52.198;9.904;2023-09-12T10:01:01;100651.38;;;22.25;85.25
16255;BME280;8235;52.198;9.904;2023-09-12T10:03:30;100650.03;;;22.29;85.30
16255;BME280;8235;52.198;9.904;2023-09-12T10:06:01;100648.00;;;22.31;83.93
16255;BME280;8235;52.198;9.904;2023-09-12T10:08:32;100631.88;;;22.30;83.01
16255;BME280;8235;52.198;9.904;2023-09-12T10:10:59;100636.63;;;22.28;83.15
16255;BME280;8235;52.198;9.904;2023-09-12T10:13:27;100636.47;;;22.29;82.71
16255;BME280;8235;52.198;9.904;2023-09-12T10:15:58;100635.94;;;22.34;81.92
16255;BME280;8235;52.198;9.904;2023-09-12T10:18:28;100649.19;;;22.37;82.68
16255;BME280;8235;52.198;9.904;2023-09-12T10:21:04;100646.78;;;22.42;82.72
16255;BME280;8235;52.198;9.904;2023-09-12T10:23:38;100633.69;;;22.45;83.46
16255;BME280;8235;52.198;9.904;2023-09-12T10:26:10;100633.00;;;22.51;83.61
16255;BME280;8235;52.198;9.904;2023-09-12T10:28:37;100615.38;;;22.56;83.09
16255;BME280;8235;52.198;9.904;2023-09-12T10:31:05;100620.56;;;22.65;83.37
16255;BME280;8235;52.198;9.904;2023-09-12T10:33:33;100623.28;;;22.73;83.64
16255;BME280;8235;52.198;9.904;2023-09-12T10:36:00;100621.69;;;22.87;81.54
16255;BME280;8235;52.198;9.904;2023-09-12T10:38:30;100632.03;;;22.92;80.15
16255;BME280;8235;52.198;9.904;2023-09-12T10:41:00;100619.78;;;22.96;80.73
16255;BME280;8235;52.198;9.904;2023-09-12T10:43:30;100622.97;;;22.99;80.53
16255;BME280;8235;52.198;9.904;2023-09-12T10:46:00;100625.19;;;23.04;79.89
16255;BME280;8235;52.198;9.904;2023-09-12T10:48:29;100632.31;;;23.05;79.94
16255;BME280;8235;52.198;9.904;2023-09-12T10:50:57;100635.03;;;23.05;80.08
16255;BME280;8235;52.198;9.904;2023-09-12T10:53:26;100636.88;;;23.04;79.20
16255;BME280;8235;52.198;9.904;2023-09-12T10:56:00;100635.53;;;23.00;78.89
16255;BME280;8235;52.198;9.904;2023-09-12T10:58:28;100631.31;;;22.98;79.22
16255;BME280;8235;52.198;9.904;2023-09-12T11:01:23;100629.97;;;22.94;79.29
16255;BME280;8235;52.198;9.904;2023-09-12T11:03:51;100636.78;;;22.90;78.11
16255;BME280;8235;52.198;9.904;2023-09-12T11:06:21;100641.22;;;22.82;78.24
16255;BME280;8235;52.198;9.904;2023-09-12T11:09:15;100636.31;;;22.78;79.10
16255;BME280;8235;52.198;9.904;2023-09-12T11:11:45;100628.19;;;22.78;79.66
16255;BME280;8235;52.198;9.904;2023-09-12T11:14:13;100629.69;;;22.80;80.22
16255;BME280;8235;52.198;9.904;2023-09-12T11:16:42;100639.53;;;22.81;80.45
16255;BME280;8235;52.198;9.904;2023-09-12T11:19:17;100639.38;;;22.83;80.50
16255;BME280;8235;52.198;9.904;2023-09-12T11:21:46;100647.00;;;22.79;80.11
16255;BME280;8235;52.198;9.904;2023-09-12T11:24:13;100649.06;;;22.77;80.15
16255;BME280;8235;52.198;9.904;2023-09-12T11:26:53;100645.84;;;22.74;80.25
16255;BME280;8235;52.198;9.904;2023-09-12T11:29:20;100657.88;;;22.71;80.48
16255;BME280;8235;52.198;9.904;2023-09-12T11:31:54;100673.50;;;22.69;80.57
16255;BME280;8235;52.198;9.904;2023-09-12T11:34:24;100682.16;;;22.65;80.89
16255;BME280;8235;52.198;9.904;2023-09-12T11:36:54;100689.81;;;22.61;80.91
16255;BME280;8235;52.198;9.904;2023-09-12T11:39:25;100684.72;;;22.58;80.92
16255;BME280;8235;52.198;9.904;2023-09-12T11:41:52;100677.28;;;22.52;81.12
16255;BME280;8235;52.198;9.904;2023-09-12T11:44:20;100666.09;;;22.47;81.58
16255;BME280;8235;52.198;9.904;2023-09-12T11:46:48;100681.53;;;22.46;82.95
16255;BME280;8235;52.198;9.904;2023-09-12T11:49:17;100685.78;;;22.49;84.04
16255;BME280;8235;52.198;9.904;2023-09-12T11:51:53;100690.19;;;22.50;83.94
16255;BME280;8235;52.198;9.904;2023-09-12T11:54:21;100695.28;;;22.45;83.72
16255;BME280;8235;52.198;9.904;2023-09-12T11:56:51;100681.03;;;22.43;84.07
16255;BME280;8235;52.198;9.904;2023-09-12T11:59:22;100684.75;;;22.42;84.62
16255;BME280;8235;52.198;9.904;2023-09-12T12:01:48;100682.91;;;22.42;84.35
16255;BME280;8235;52.198;9.904;2023-09-12T12:04:16;100689.34;;;22.41;83.99
16255;BME280;8235;52.198;9.904;2023-09-12T12:06:43;100660.50;;;22.40;83.03
16255;BME280;8235;52.198;9.904;2023-09-12T12:09:10;100645.78;;;22.35;83.26
16255;BME280;8235;52.198;9.904;2023-09-12T12:11:36;100631.38;;;22.34;83.43
16255;BME280;8235;52.198;9.904;2023-09-12T12:14:11;100618.50;;;22.28;83.21
16255;BME280;8235;52.198;9.904;2023-09-12T12:16:39;100619.34;;;22.29;84.26
16255;BME280;8235;52.198;9.904;2023-09-12T12:19:05;100620.53;;;22.34;84.59
16255;BME280;8235;52.198;9.904;2023-09-12T12:21:33;100604.91;;;22.36;83.99
16255;BME280;8235;52.198;9.904;2023-09-12T12:24:00;100586.09;;;22.35;83.81
16255;BME280;8235;52.198;9.904;2023-09-12T12:26:28;100579.31;;;22.31;83.41
16255;BME280;8235;52.198;9.904;2023-09-12T12:28:55;100557.59;;;22.31;83.95
16255;BME280;8235;52.198;9.904;2023-09-12T12:31:22;100527.94;;;22.29;84.39
16255;BME280;8235;52.198;9.904;2023-09-12T12:33:50;100496.06;;;22.23;84.20
16255;BME280;8235;52.198;9.904;2023-09-12T12:36:16;100484.94;;;22.18;86.79
16255;BME280;8235;52.198;9.904;2023-09-12T12:38:46;100483.25;;;22.09;87.61
16255;BME280;8235;52.198;9.904;2023-09-12T12:41:12;100518.38;;;22.02;88.32
16255;BME280;8235;52.198;9.904;2023-09-12T12:43:39;100523.97;;;22.01;90.32
16255;BME280;8235;52.198;9.904;2023-09-12T12:46:10;100534.81;;;22.01;90.57
16255;BME280;8235;52.198;9.904;2023-09-12T12:48:37;100561.09;;;22.00;91.57
16255;BME280;8235;52.198;9.904;2023-09-12T12:51:13;100584.81;;;21.98;91.88
16255;BME280;8235;52.198;9.904;2023-09-12T12:53:44;100577.69;;;21.97;92.80
16255;BME280;8235;52.198;9.904;2023-09-12T12:56:14;100564.78;;;21.99;92.93
16255;BME280;8235;52.198;9.904;2023-09-12T12:58:48;100559.38;;;21.99;93.12
16255;BME280;8235;52.198;9.904;2023-09-12T13:01:16;100539.72;;;21.97;92.87
16255;BME280;8235;52.198;9.904;2023-09-12T13:03:42;100518.38;;;21.94;93.33
16255;BME280;8235;52.198;9.904;2023-09-12T13:06:10;100532.09;;;21.93;93.78
16255;BME280;8235;52.198;9.904;2023-09-12T13:08:40;100532.25;;;21.91;94.49
16255;BME280;8235;52.198;9.904;2023-09-12T13:11:09;100533.09;;;21.92;95.24
16255;BME280;8235;52.198;9.904;2023-09-12T13:13:36;100520.41;;;21.92;95.59
16255;BME280;8235;52.198;9.904;2023-09-12T13:16:03;100520.06;;;21.95;96.52
16255;BME280;8235;52.198;9.904;2023-09-12T13:18:31;100509.88;;;21.97;96.26
16255;BME280;8235;52.198;9.904;2023-09-12T13:20:57;100515.69;;;22.02;96.74
16255;BME280;8235;52.198;9.904;2023-09-12T13:23:24;100521.09;;;22.02;95.24
16255;BME280;8235;52.198;9.904;2023-09-12T13:25:51;100521.56;;;22.06;95.45
16255;BME280;8235;52.198;9.904;2023-09-12T13:28:19;100507.84;;;22.07;95.79
16255;BME280;8235;52.198;9.904;2023-09-12T13:30:46;100505.81;;;22.09;96.31
16255;BME280;8235;52.198;9.904;2023-09-12T13:33:13;100514.25;;;22.14;97.01
16255;BME280;8235;52.198;9.904;2023-09-12T13:35:40;100493.75;;;22.12;95.75
16255;BME280;8235;52.198;9.904;2023-09-12T13:38:07;100490.19;;;22.11;95.22
16255;BME280;8235;52.198;9.904;2023-09-12T13:40:36;100491.03;;;22.12;95.69
16255;BME280;8235;52.198;9.904;2023-09-12T13:43:03;100492.56;;;22.14;94.13
16255;BME280;8235;52.198;9.904;2023-09-12T13:45:31;100493.06;;;22.18;95.94
16255;BME280;8235;52.198;9.904;2023-09-12T13:47:57;100487.94;;;22.23;96.33
16255;BME280;8235;52.198;9.904;2023-09-12T13:50:24;100487.41;;;22.28;95.51
16255;BME280;8235;52.198;9.904;2023-09-12T13:52:53;100488.75;;;22.32;95.92
16255;BME280;8235;52.198;9.904;2023-09-12T13:55:20;100490.78;;;22.38;96.69
16255;BME280;8235;52.198;9.904;2023-09-12T13:57:46;100487.34;;;22.44;96.19
16255;BME280;8235;52.198;9.904;2023-09-12T14:00:13;100483.25;;;22.48;91.43
16255;BME280;8235;52.198;9.904;2023-09-12T14:02:41;100478.34;;;22.43;87.40
16255;BME280;8235;52.198;9.904;2023-09-12T14:05:07;100481.22;;;22.42;86.18
16255;BME280;8235;52.198;9.904;2023-09-12T14:07:34;100478.34;;;22.43;86.64